sensor_id;sensor_type;location;lat;lon;timestamp;temperature;humidity
60868;DHT22;46702;48.370;10.794;2024-01-11T00:02:13;-4.10;99.90
60868;DHT22;46702;48.370;10.794;2024-01-11T00:04:40;-4.20;99.90
60868;DHT22;46702;48.370;10.794;2024-01-11T00:07:05;-4.20;99.90
60868;DHT22;46702;48.370;10.794;2024-01-11T00:09:31;-4.20;99.90
60868;DHT22;46702;48.370;10.794;2024-01-11T00:11:57;-4.10;99.90
60868;DHT22;46702;48.370;10.794;2024-01-11T00:14:22;-4.10;99.90
60868;DHT22;46702;48.370;10.794;2024-01-11T00:16:48;-4.10;99.90
60868;DHT22;46702;48.370;10.794;2024-01-11T00:19:13;-4.10;99.90
60868;DHT22;46702;48.370;10.794;2024-01-11T00:21:39;-4.20;99.90
60868;DHT22;46702;48.370;10.794;2024-01-11T00:24:05;-4.10;99.90
60868;DHT22;46702;48.370;10.794;2024-01-11T00:26:30;-4.10;99.90
60868;DHT22;46702;48.370;10.794;2024-01-11T00:28:56;-4.10;99.90
60868;DHT22;46702;48.370;10.794;2024-01-11T00:31:21;-4.10;99.90
60868;DHT22;46702;48.370;10.794;2024-01-11T00:33:47;-4.20;99.90
60868;DHT22;46702;48.370;10.794;2024-01-11T00:36:18;-4.20;99.90
60868;DHT22;46702;48.370;10.794;2024-01-11T00:38:44;-4.30;99.90
60868;DHT22;46702;48.370;10.794;2024-01-11T00:41:10;-4.40;99.90
60868;DHT22;46702;48.370;10.794;2024-01-11T00:43:35;-4.50;99.90
60868;DHT22;46702;48.370;10.794;2024-01-11T00:46:01;-4.50;99.90
60868;DHT22;46702;48.370;10.794;2024-01-11T00:48:29;-4.50;99.90
60868;DHT22;46702;48.370;10.794;2024-01-11T00:50:54;-4.50;99.90
60868;DHT22;46702;48.370;10.794;2024-01-11T00:53:20;-4.40;99.90
60868;DHT22;46702;48.370;10.794;2024-01-11T00:55:45;-4.30;99.90
60868;DHT22;46702;48.370;10.794;2024-01-11T00:58:11;-4.30;99.90
60868;DHT22;46702;48.370;10.794;2024-01-11T01:00:37;-4.30;99.90
60868;DHT22;46702;48.370;10.794;2024-01-11T01:03:02;-4.20;99.90
60868;DHT22;46702;48.370;10.794;2024-01-11T01:05:28;-4.30;99.90
60868;DHT22;46702;48.370;10.794;2024-01-11T01:07:54;-4.30;99.90
60868;DHT22;46702;48.370;10.794;2024-01-11T01:10:19;-4.30;99.90
60868;DHT22;46702;48.370;10.794;2024-01-11T01:12:45;-4.40;99.90
60868;DHT22;46702;48.370;10.794;2024-01-11T01:15:10;-4.40;99.90
60868;DHT22;46702;48.370;10.794;2024-01-11T01:17:37;-4.50;99.90
60868;DHT22;46702;48.370;10.794;2024-01-11T01:20:03;-4.50;99.90
60868;DHT22;46702;48.370;10.794;2024-01-11T01:22:28;-4.60;99.90
60868;DHT22;46702;48.370;10.794;2024-01-11T01:24:54;-4.60;99.90
60868;DHT22;46702;48.370;10.794;2024-01-11T01:27:20;-4.70;99.90
60868;DHT22;46702;48.370;10.794;2024-01-11T01:29:46;-4.80;99.90
60868;DHT22;46702;48.370;10.794;2024-01-11T01:32:11;-4.70;99.90
60868;DHT22;46702;48.370;10.794;2024-01-11T01:34:37;-4.70;99.90
60868;DHT22;46702;48.370;10.794;2024-01-11T01:37:03;-4.70;99.90
60868;DHT22;46702;48.370;10.794;2024-01-11T01:39:28;-4.70;99.90
60868;DHT22;46702;48.370;10.794;2024-01-11T01:41:54;-4.70;99.90
60868;DHT22;46702;48.370;10.794;2024-01-11T01:44:19;-4.70;99.90
60868;DHT22;46702;48.370;10.794;2024-01-11T01:46:45;-4.70;99.90
60868;DHT22;46702;48.370;10.794;2024-01-11T01:49:12;-4.60;99.90
60868;DHT22;46702;48.370;10.794;2024-01-11T01:51:38;-4.60;99.90
60868;DHT22;46702;48.370;10.794;2024-01-11T01:54:04;-4.60;99.90
60868;DHT22;46702;48.370;10.794;2024-01-11T01:56:31;-4.60;99.90
60868;DHT22;46702;48.370;10.794;2024-01-11T01:58:58;-4.60;99.90
60868;DHT22;46702;48.370;10.794;2024-01-11T02:01:25;-4.60;99.90
60868;DHT22;46702;48.370;10.794;2024-01-11T02:03:54;-4.60;99.90
60868;DHT22;46702;48.370;10.794;2024-01-11T02:06:23;-4.70;99.90
60868;DHT22;46702;48.370;10.794;2024-01-11T02:08:51;-4.70;99.90
60868;DHT22;46702;48.370;10.794;2024-01-11T02:11:20;-4.70;99.90
60868;DHT22;46702;48.370;10.794;2024-01-11T02:13:47;-4.70;99.90
60868;DHT22;46702;48.370;10.794;2024-01-11T02:16:13;-4.70;99.90
60868;DHT22;46702;48.370;10.794;2024-01-11T02:18:39;-4.60;99.90
60868;DHT22;46702;48.370;10.794;2024-01-11T02:21:08;-4.60;99.90
60868;DHT22;46702;48.370;10.794;2024-01-11T02:23:39;-4.60;99.90
60868;DHT22;46702;48.370;10.794;2024-01-11T02:26:07;-4.60;99.90
60868;DHT22;46702;48.370;10.794;2024-01-11T02:28:32;-4.50;99.90
60868;DHT22;46702;48.370;10.794;2024-01-11T02:30:58;-4.60;99.90
60868;DHT22;46702;48.370;10.794;2024-01-11T02:33:23;-4.60;99.90
60868;DHT22;46702;48.370;10.794;2024-01-11T02:35:50;-4.60;99.90
60868;DHT22;46702;48.370;10.794;2024-01-11T02:38:16;-4.70;99.90
60868;DHT22;46702;48.370;10.794;2024-01-11T02:40:43;-4.80;99.90
60868;DHT22;46702;48.370;10.794;2024-01-11T02:43:09;-4.80;99.90
60868;DHT22;46702;48.370;10.794;2024-01-11T02:45:36;-4.80;99.90
60868;DHT22;46702;48.370;10.794;2024-01-11T02:48:01;-4.80;99.90
60868;DHT22;46702;48.370;10.794;2024-01-11T02:50:27;-4.80;99.90
60868;DHT22;46702;48.370;10.794;2024-01-11T02:52:53;-4.70;99.90
60868;DHT22;46702;48.370;10.794;2024-01-11T02:55:18;-4.70;99.90
60868;DHT22;46702;48.370;10.794;2024-01-11T02:57:44;-4.80;99.90
60868;DHT22;46702;48.370;10.794;2024-01-11T03:00:10;-4.90;99.90
60868;DHT22;46702;48.370;10.794;2024-01-11T03:02:37;-4.90;99.90
60868;DHT22;46702;48.370;10.794;2024-01-11T03:05:03;-4.90;99.90
60868;DHT22;46702;48.370;10.794;2024-01-11T03:07:29;-5.00;99.90
60868;DHT22;46702;48.370;10.794;2024-01-11T03:09:56;-5.00;99.90
60868;DHT22;46702;48.370;10.794;2024-01-11T03:12:21;-4.90;99.90
60868;DHT22;46702;48.370;10.794;2024-01-11T03:14:47;-4.90;99.90
60868;DHT22;46702;48.370;10.794;2024-01-11T03:17:13;-5.00;99.90
60868;DHT22;46702;48.370;10.794;2024-01-11T03:19:40;-4.90;99.90
60868;DHT22;46702;48.370;10.794;2024-01-11T03:22:06;-4.90;99.90
60868;DHT22;46702;48.370;10.794;2024-01-11T03:24:32;-4.90;99.90
60868;DHT22;46702;48.370;10.794;2024-01-11T03:26:58;-4.90;99.90
60868;DHT22;46702;48.370;10.794;2024-01-11T03:29:24;-4.90;99.90
60868;DHT22;46702;48.370;10.794;2024-01-11T03:31:49;-4.90;99.90
60868;DHT22;46702;48.370;10.794;2024-01-11T03:34:15;-4.90;99.90
60868;DHT22;46702;48.370;10.794;2024-01-11T03:36:42;-4.90;99.90
60868;DHT22;46702;48.370;10.794;2024-01-11T03:39:07;-4.90;99.90
60868;DHT22;46702;48.370;10.794;2024-01-11T03:41:33;-4.90;99.90
60868;DHT22;46702;48.370;10.794;2024-01-11T03:43:59;-4.90;99.90
60868;DHT22;46702;48.370;10.794;2024-01-11T03:46:24;-4.80;99.90
60868;DHT22;46702;48.370;10.794;2024-01-11T03:48:50;-4.80;99.90
60868;DHT22;46702;48.370;10.794;2024-01-11T03:51:16;-4.80;99.90
60868;DHT22;46702;48.370;10.794;2024-01-11T03:53:44;-4.80;99.90
60868;DHT22;46702;48.370;10.794;2024-01-11T03:56:10;-4.90;99.90
60868;DHT22;46702;48.370;10.794;2024-01-11T03:58:36;-4.90;99.90
60868;DHT22;46702;48.370;10.794;2024-01-11T04:01:04;-4.90;99.90
60868;DHT22;46702;48.370;10.794;2024-01-11T04:03:30;-4.90;99.90
60868;DHT22;46702;48.370;10.794;2024-01-11T04:05:55;-4.90;99.90
60868;DHT22;46702;48.370;10.794;2024-01-11T04:08:21;-4.90;99.90
60868;DHT22;46702;48.370;10.794;2024-01-11T04:10:46;-4.90;99.90
60868;DHT22;46702;48.370;10.794;2024-01-11T04:13:12;-4.90;99.90
60868;DHT22;46702;48.370;10.794;2024-01-11T04:15:38;-4.90;99.90
60868;DHT22;46702;48.370;10.794;2024-01-11T04:18:03;-4.90;99.90
60868;DHT22;46702;48.370;10.794;2024-01-11T04:20:29;-4.80;99.90
60868;DHT22;46702;48.370;10.794;2024-01-11T04:22:55;-4.80;99.90
60868;DHT22;46702;48.370;10.794;2024-01-11T04:25:20;-4.80;99.90
60868;DHT22;46702;48.370;10.794;2024-01-11T04:27:46;-4.80;99.90
60868;DHT22;46702;48.370;10.794;2024-01-11T04:30:12;-4.80;99.90
60868;DHT22;46702;48.370;10.794;2024-01-11T04:32:37;-4.80;99.90
60868;DHT22;46702;48.370;10.794;2024-01-11T04:35:03;-4.80;99.90
60868;DHT22;46702;48.370;10.794;2024-01-11T04:37:30;-4.80;99.90
60868;DHT22;46702;48.370;10.794;2024-01-11T04:39:55;-4.90;99.90
60868;DHT22;46702;48.370;10.794;2024-01-11T04:42:26;-4.90;99.90
60868;DHT22;46702;48.370;10.794;2024-01-11T04:44:52;-4.90;99.90
60868;DHT22;46702;48.370;10.794;2024-01-11T04:47:18;-4.90;99.90
60868;DHT22;46702;48.370;10.794;2024-01-11T04:49:43;-5.00;99.90
60868;DHT22;46702;48.370;10.794;2024-01-11T04:52:09;-5.00;99.90
60868;DHT22;46702;48.370;10.794;2024-01-11T04:54:34;-5.00;99.90
60868;DHT22;46702;48.370;10.794;2024-01-11T04:57:00;-5.00;99.90
60868;DHT22;46702;48.370;10.794;2024-01-11T04:59:26;-5.10;99.90
60868;DHT22;46702;48.370;10.794;2024-01-11T05:01:51;-5.10;99.90
60868;DHT22;46702;48.370;10.794;2024-01-11T05:04:17;-5.10;99.90
60868;DHT22;46702;48.370;10.794;2024-01-11T05:06:42;-5.10;99.90
60868;DHT22;46702;48.370;10.794;2024-01-11T05:09:08;-5.10;99.90
60868;DHT22;46702;48.370;10.794;2024-01-11T05:11:34;-5.10;99.90
60868;DHT22;46702;48.370;10.794;2024-01-11T05:13:59;-5.20;99.90
60868;DHT22;46702;48.370;10.794;2024-01-11T05:16:26;-5.10;99.90
60868;DHT22;46702;48.370;10.794;2024-01-11T05:18:53;-5.10;99.90
60868;DHT22;46702;48.370;10.794;2024-01-11T05:21:20;-5.10;99.90
60868;DHT22;46702;48.370;10.794;2024-01-11T05:23:46;-5.10;99.90
60868;DHT22;46702;48.370;10.794;2024-01-11T05:26:14;-5.20;99.90
60868;DHT22;46702;48.370;10.794;2024-01-11T05:28:40;-5.20;99.90
60868;DHT22;46702;48.370;10.794;2024-01-11T05:31:12;-5.20;99.90
60868;DHT22;46702;48.370;10.794;2024-01-11T05:33:38;-5.20;99.90
60868;DHT22;46702;48.370;10.794;2024-01-11T05:36:04;-5.20;99.90
60868;DHT22;46702;48.370;10.794;2024-01-11T05:38:30;-5.20;99.90
60868;DHT22;46702;48.370;10.794;2024-01-11T05:40:56;-5.20;99.90
60868;DHT22;46702;48.370;10.794;2024-01-11T05:43:22;-5.20;99.90
60868;DHT22;46702;48.370;10.794;2024-01-11T05:45:49;-5.20;99.90
60868;DHT22;46702;48.370;10.794;2024-01-11T05:48:15;-5.10;99.90
60868;DHT22;46702;48.370;10.794;2024-01-11T05:50:41;-4.90;99.90
60868;DHT22;46702;48.370;10.794;2024-01-11T05:53:07;-4.80;99.90
60868;DHT22;46702;48.370;10.794;2024-01-11T05:55:32;-4.90;99.90
60868;DHT22;46702;48.370;10.794;2024-01-11T05:57:58;-4.80;99.90
60868;DHT22;46702;48.370;10.794;2024-01-11T06:00:23;-4.80;99.90
60868;DHT22;46702;48.370;10.794;2024-01-11T06:02:49;-4.70;99.90
60868;DHT22;46702;48.370;10.794;2024-01-11T06:05:15;-4.80;99.90
60868;DHT22;46702;48.370;10.794;2024-01-11T06:07:41;-4.90;99.90
60868;DHT22;46702;48.370;10.794;2024-01-11T06:10:07;-5.00;99.90
60868;DHT22;46702;48.370;10.794;2024-01-11T06:12:34;-5.10;99.90
60868;DHT22;46702;48.370;10.794;2024-01-11T06:15:00;-5.10;99.90
60868;DHT22;46702;48.370;10.794;2024-01-11T06:17:26;-5.10;99.90
60868;DHT22;46702;48.370;10.794;2024-01-11T06:19:52;-5.10;99.90
60868;DHT22;46702;48.370;10.794;2024-01-11T06:22:18;-5.10;99.90
60868;DHT22;46702;48.370;10.794;2024-01-11T06:24:44;-5.10;99.90
60868;DHT22;46702;48.370;10.794;2024-01-11T06:27:10;-5.10;99.90
60868;DHT22;46702;48.370;10.794;2024-01-11T06:29:35;-5.10;99.90
60868;DHT22;46702;48.370;10.794;2024-01-11T06:32:01;-5.10;99.90
60868;DHT22;46702;48.370;10.794;2024-01-11T06:34:28;-5.20;99.90
60868;DHT22;46702;48.370;10.794;2024-01-11T06:36:57;-5.20;99.90
60868;DHT22;46702;48.370;10.794;2024-01-11T06:39:22;-5.20;99.90
60868;DHT22;46702;48.370;10.794;2024-01-11T06:41:48;-5.20;99.90
60868;DHT22;46702;48.370;10.794;2024-01-11T06:44:14;-5.30;99.90
60868;DHT22;46702;48.370;10.794;2024-01-11T06:46:40;-5.30;99.90
60868;DHT22;46702;48.370;10.794;2024-01-11T06:49:07;-5.40;99.90
60868;DHT22;46702;48.370;10.794;2024-01-11T06:51:33;-5.40;99.90
60868;DHT22;46702;48.370;10.794;2024-01-11T06:53:59;-5.40;99.90
60868;DHT22;46702;48.370;10.794;2024-01-11T06:56:26;-5.40;99.90
60868;DHT22;46702;48.370;10.794;2024-01-11T06:58:53;-5.40;99.90
60868;DHT22;46702;48.370;10.794;2024-01-11T07:01:19;-5.50;99.90
60868;DHT22;46702;48.370;10.794;2024-01-11T07:03:45;-5.60;99.90
60868;DHT22;46702;48.370;10.794;2024-01-11T07:06:11;-5.60;99.90
60868;DHT22;46702;48.370;10.794;2024-01-11T07:08:37;-5.60;99.90
60868;DHT22;46702;48.370;10.794;2024-01-11T07:11:03;-5.60;99.90
60868;DHT22;46702;48.370;10.794;2024-01-11T07:13:32;-5.70;99.90
60868;DHT22;46702;48.370;10.794;2024-01-11T07:15:58;-5.70;99.90
60868;DHT22;46702;48.370;10.794;2024-01-11T07:18:26;-5.70;99.90
60868;DHT22;46702;48.370;10.794;2024-01-11T07:20:52;-5.70;99.90
60868;DHT22;46702;48.370;10.794;2024-01-11T07:23:18;-5.70;99.90
60868;DHT22;46702;48.370;10.794;2024-01-11T07:25:44;-5.80;99.90
60868;DHT22;46702;48.370;10.794;2024-01-11T07:28:10;-5.70;99.90
60868;DHT22;46702;48.370;10.794;2024-01-11T07:30:36;-5.70;99.90
60868;DHT22;46702;48.370;10.794;2024-01-11T07:33:02;-5.70;99.90
60868;DHT22;46702;48.370;10.794;2024-01-11T07:35:27;-5.60;99.90
60868;DHT22;46702;48.370;10.794;2024-01-11T07:37:53;-5.60;99.90
60868;DHT22;46702;48.370;10.794;2024-01-11T07:40:19;-5.60;99.90
60868;DHT22;46702;48.370;10.794;2024-01-11T07:42:45;-5.70;99.90
60868;DHT22;46702;48.370;10.794;2024-01-11T07:45:17;-5.70;99.90
60868;DHT22;46702;48.370;10.794;2024-01-11T07:47:49;-5.60;99.90
60868;DHT22;46702;48.370;10.794;2024-01-11T07:50:17;-5.70;99.90
60868;DHT22;46702;48.370;10.794;2024-01-11T07:52:44;-5.70;99.90
60868;DHT22;46702;48.370;10.794;2024-01-11T07:55:10;-5.60;99.90
60868;DHT22;46702;48.370;10.794;2024-01-11T07:57:38;-5.70;99.90
60868;DHT22;46702;48.370;10.794;2024-01-11T08:00:05;-5.70;99.90
60868;DHT22;46702;48.370;10.794;2024-01-11T08:02:34;-5.60;99.90
60868;DHT22;46702;48.370;10.794;2024-01-11T08:05:00;-5.60;99.90
60868;DHT22;46702;48.370;10.794;2024-01-11T08:07:28;-5.60;99.90
60868;DHT22;46702;48.370;10.794;2024-01-11T08:09:54;-5.60;99.90
60868;DHT22;46702;48.370;10.794;2024-01-11T08:12:20;-5.60;99.90
60868;DHT22;46702;48.370;10.794;2024-01-11T08:14:46;-5.70;99.90
60868;DHT22;46702;48.370;10.794;2024-01-11T08:17:13;-5.60;99.90
60868;DHT22;46702;48.370;10.794;2024-01-11T08:19:39;-5.70;99.90
60868;DHT22;46702;48.370;10.794;2024-01-11T08:22:06;-5.70;99.90
60868;DHT22;46702;48.370;10.794;2024-01-11T08:24:32;-5.70;99.90
60868;DHT22;46702;48.370;10.794;2024-01-11T08:26:58;-5.70;99.90
60868;DHT22;46702;48.370;10.794;2024-01-11T08:29:23;-5.60;99.90
60868;DHT22;46702;48.370;10.794;2024-01-11T08:31:50;-5.70;99.90
60868;DHT22;46702;48.370;10.794;2024-01-11T08:34:15;-5.70;99.90
60868;DHT22;46702;48.370;10.794;2024-01-11T08:36:41;-5.70;99.90
60868;DHT22;46702;48.370;10.794;2024-01-11T08:39:09;-5.70;99.90
60868;DHT22;46702;48.370;10.794;2024-01-11T08:41:36;-5.70;99.90
60868;DHT22;46702;48.370;10.794;2024-01-11T08:44:04;-5.70;99.90
60868;DHT22;46702;48.370;10.794;2024-01-11T08:46:32;-5.70;99.90
60868;DHT22;46702;48.370;10.794;2024-01-11T08:49:02;-5.70;99.90
60868;DHT22;46702;48.370;10.794;2024-01-11T08:51:31;-5.70;99.90
60868;DHT22;46702;48.370;10.794;2024-01-11T08:54:01;-5.70;99.90
60868;DHT22;46702;48.370;10.794;2024-01-11T08:56:26;-5.70;99.90
60868;DHT22;46702;48.370;10.794;2024-01-11T08:58:53;-5.70;99.90
60868;DHT22;46702;48.370;10.794;2024-01-11T09:01:19;-5.70;99.90
60868;DHT22;46702;48.370;10.794;2024-01-11T09:03:45;-5.70;99.90
60868;DHT22;46702;48.370;10.794;2024-01-11T09:06:13;-5.70;99.90
60868;DHT22;46702;48.370;10.794;2024-01-11T09:08:39;-5.60;99.90
60868;DHT22;46702;48.370;10.794;2024-01-11T09:11:06;-5.60;99.90
60868;DHT22;46702;48.370;10.794;2024-01-11T09:13:32;-5.60;99.90
60868;DHT22;46702;48.370;10.794;2024-01-11T09:15:58;-5.50;99.90
60868;DHT22;46702;48.370;10.794;2024-01-11T09:18:23;-5.50;99.90
60868;DHT22;46702;48.370;10.794;2024-01-11T09:20:51;-5.40;99.90
60868;DHT22;46702;48.370;10.794;2024-01-11T09:23:17;-5.40;99.90
60868;DHT22;46702;48.370;10.794;2024-01-11T09:25:45;-5.30;99.90
60868;DHT22;46702;48.370;10.794;2024-01-11T09:28:11;-5.30;99.90
60868;DHT22;46702;48.370;10.794;2024-01-11T09:30:39;-5.30;99.90
60868;DHT22;46702;48.370;10.794;2024-01-11T09:33:05;-5.20;99.90
60868;DHT22;46702;48.370;10.794;2024-01-11T09:35:31;-5.20;99.90
60868;DHT22;46702;48.370;10.794;2024-01-11T09:37:57;-5.20;99.90
60868;DHT22;46702;48.370;10.794;2024-01-11T09:40:23;-5.20;99.90
60868;DHT22;46702;48.370;10.794;2024-01-11T09:42:49;-5.00;99.90
60868;DHT22;46702;48.370;10.794;2024-01-11T09:45:18;-4.90;99.90
60868;DHT22;46702;48.370;10.794;2024-01-11T09:47:44;-4.80;99.90
60868;DHT22;46702;48.370;10.794;2024-01-11T09:50:15;-4.70;99.90
60868;DHT22;46702;48.370;10.794;2024-01-11T09:52:46;-4.60;99.90
60868;DHT22;46702;48.370;10.794;2024-01-11T09:55:13;-4.60;99.90
60868;DHT22;46702;48.370;10.794;2024-01-11T09:57:43;-4.60;99.90
60868;DHT22;46702;48.370;10.794;2024-01-11T10:00:10;-4.50;99.90
60868;DHT22;46702;48.370;10.794;2024-01-11T10:02:38;-4.30;99.90
60868;DHT22;46702;48.370;10.794;2024-01-11T10:05:05;-4.30;99.90
60868;DHT22;46702;48.370;10.794;2024-01-11T10:07:32;-4.30;99.90
60868;DHT22;46702;48.370;10.794;2024-01-11T10:09:59;-4.20;99.90
60868;DHT22;46702;48.370;10.794;2024-01-11T10:12:27;-4.20;99.90
60868;DHT22;46702;48.370;10.794;2024-01-11T10:14:53;-4.10;99.90
60868;DHT22;46702;48.370;10.794;2024-01-11T10:17:19;-4.00;99.90
60868;DHT22;46702;48.370;10.794;2024-01-11T10:19:45;-4.00;99.90
60868;DHT22;46702;48.370;10.794;2024-01-11T10:22:11;-4.10;99.90
60868;DHT22;46702;48.370;10.794;2024-01-11T10:24:42;-4.20;99.90
60868;DHT22;46702;48.370;10.794;2024-01-11T10:27:11;-4.30;99.90
60868;DHT22;46702;48.370;10.794;2024-01-11T10:29:39;-4.00;99.90
60868;DHT22;46702;48.370;10.794;2024-01-11T10:32:05;-3.90;99.90
60868;DHT22;46702;48.370;10.794;2024-01-11T10:34:30;-3.80;99.90
60868;DHT22;46702;48.370;10.794;2024-01-11T10:36:56;-3.80;99.90
60868;DHT22;46702;48.370;10.794;2024-01-11T10:39:24;-3.70;99.90
60868;DHT22;46702;48.370;10.794;2024-01-11T10:42:05;-3.70;99.90
60868;DHT22;46702;48.370;10.794;2024-01-11T10:44:34;-3.60;99.90
60868;DHT22;46702;48.370;10.794;2024-01-11T10:47:03;-3.60;99.90
60868;DHT22;46702;48.370;10.794;2024-01-11T10:49:30;-3.60;99.90
60868;DHT22;46702;48.370;10.794;2024-01-11T10:52:02;-3.50;99.90
60868;DHT22;46702;48.370;10.794;2024-01-11T10:54:30;-3.50;99.90
60868;DHT22;46702;48.370;10.794;2024-01-11T10:57:00;-3.50;99.90
60868;DHT22;46702;48.370;10.794;2024-01-11T10:59:29;-3.50;99.90
60868;DHT22;46702;48.370;10.794;2024-01-11T11:01:58;-3.50;99.90
60868;DHT22;46702;48.370;10.794;2024-01-11T11:04:30;-3.50;99.90
60868;DHT22;46702;48.370;10.794;2024-01-11T11:07:00;-3.40;99.90
60868;DHT22;46702;48.370;10.794;2024-01-11T11:09:27;-3.40;99.90
60868;DHT22;46702;48.370;10.794;2024-01-11T11:11:58;-3.30;99.90
60868;DHT22;46702;48.370;10.794;2024-01-11T11:14:24;-3.40;99.90
60868;DHT22;46702;48.370;10.794;2024-01-11T11:16:52;-3.30;99.90
60868;DHT22;46702;48.370;10.794;2024-01-11T11:19:21;-3.30;99.90
60868;DHT22;46702;48.370;10.794;2024-01-11T11:21:48;-3.30;99.90
60868;DHT22;46702;48.370;10.794;2024-01-11T11:24:16;-3.20;99.90
60868;DHT22;46702;48.370;10.794;2024-01-11T11:26:42;-3.30;99.90
60868;DHT22;46702;48.370;10.794;2024-01-11T11:29:08;-3.30;99.90
60868;DHT22;46702;48.370;10.794;2024-01-11T11:31:45;-3.30;99.90
60868;DHT22;46702;48.370;10.794;2024-01-11T11:34:13;-3.30;99.90
60868;DHT22;46702;48.370;10.794;2024-01-11T11:36:48;-3.30;99.90
60868;DHT22;46702;48.370;10.794;2024-01-11T11:39:18;-3.20;99.90
60868;DHT22;46702;48.370;10.794;2024-01-11T11:41:48;-3.20;99.90
60868;DHT22;46702;48.370;10.794;2024-01-11T11:44:16;-3.10;99.90
60868;DHT22;46702;48.370;10.794;2024-01-11T11:46:42;-3.10;99.90
60868;DHT22;46702;48.370;10.794;2024-01-11T11:49:09;-3.20;99.90
60868;DHT22;46702;48.370;10.794;2024-01-11T11:51:39;-3.20;99.90
60868;DHT22;46702;48.370;10.794;2024-01-11T11:54:06;-3.20;99.90
60868;DHT22;46702;48.370;10.794;2024-01-11T11:56:35;-3.20;99.90
60868;DHT22;46702;48.370;10.794;2024-01-11T11:59:02;-3.50;99.90
60868;DHT22;46702;48.370;10.794;2024-01-11T12:01:29;-3.70;99.90
60868;DHT22;46702;48.370;10.794;2024-01-11T12:03:57;-3.80;99.90
60868;DHT22;46702;48.370;10.794;2024-01-11T12:06:23;-3.80;99.90
60868;DHT22;46702;48.370;10.794;2024-01-11T12:08:53;-3.90;99.90
60868;DHT22;46702;48.370;10.794;2024-01-11T12:11:20;-3.70;99.90
60868;DHT22;46702;48.370;10.794;2024-01-11T12:13:47;-3.60;99.90
60868;DHT22;46702;48.370;10.794;2024-01-11T12:16:14;-3.60;99.90
60868;DHT22;46702;48.370;10.794;2024-01-11T12:18:40;-3.50;99.90
60868;DHT22;46702;48.370;10.794;2024-01-11T12:21:07;-3.50;99.90
60868;DHT22;46702;48.370;10.794;2024-01-11T12:23:34;-3.40;99.90
60868;DHT22;46702;48.370;10.794;2024-01-11T12:26:04;-3.50;99.90
60868;DHT22;46702;48.370;10.794;2024-01-11T12:28:33;-3.40;99.90
60868;DHT22;46702;48.370;10.794;2024-01-11T12:30:59;-3.30;99.90
60868;DHT22;46702;48.370;10.794;2024-01-11T12:33:26;-3.30;99.90
60868;DHT22;46702;48.370;10.794;2024-01-11T12:35:52;-3.40;99.90
60868;DHT22;46702;48.370;10.794;2024-01-11T12:38:17;-3.60;99.90
60868;DHT22;46702;48.370;10.794;2024-01-11T12:40:46;-3.60;99.90
60868;DHT22;46702;48.370;10.794;2024-01-11T12:43:12;-3.60;99.90
60868;DHT22;46702;48.370;10.794;2024-01-11T12:45:39;-3.60;99.90
60868;DHT22;46702;48.370;10.794;2024-01-11T12:48:07;-3.60;99.90
60868;DHT22;46702;48.370;10.794;2024-01-11T12:50:33;-3.70;99.90
60868;DHT22;46702;48.370;10.794;2024-01-11T12:53:12;-3.70;99.90
60868;DHT22;46702;48.370;10.794;2024-01-11T12:55:44;-3.70;99.90
60868;DHT22;46702;48.370;10.794;2024-01-11T12:58:10;-3.70;99.90
60868;DHT22;46702;48.370;10.794;2024-01-11T13:00:36;-3.70;99.90
60868;DHT22;46702;48.370;10.794;2024-01-11T13:03:03;-3.50;99.90
60868;DHT22;46702;48.370;10.794;2024-01-11T13:05:29;-3.40;99.90
60868;DHT22;46702;48.370;10.794;2024-01-11T13:08:10;-3.40;99.90
60868;DHT22;46702;48.370;10.794;2024-01-11T13:10:36;-3.40;99.90
60868;DHT22;46702;48.370;10.794;2024-01-11T13:13:03;-3.40;99.90
60868;DHT22;46702;48.370;10.794;2024-01-11T13:15:30;-3.30;99.90
60868;DHT22;46702;48.370;10.794;2024-01-11T13:17:57;-3.20;99.90
60868;DHT22;46702;48.370;10.794;2024-01-11T13:20:23;-3.10;99.90
60868;DHT22;46702;48.370;10.794;2024-01-11T13:23:00;-3.20;99.90
60868;DHT22;46702;48.370;10.794;2024-01-11T13:25:35;-3.20;99.90
60868;DHT22;46702;48.370;10.794;2024-01-11T13:28:01;-3.20;99.90
60868;DHT22;46702;48.370;10.794;2024-01-11T13:30:27;-3.10;99.90
60868;DHT22;46702;48.370;10.794;2024-01-11T13:32:53;-3.10;99.90
60868;DHT22;46702;48.370;10.794;2024-01-11T13:35:18;-3.00;99.90
60868;DHT22;46702;48.370;10.794;2024-01-11T13:37:45;-3.00;99.90
60868;DHT22;46702;48.370;10.794;2024-01-11T13:40:13;-2.90;99.90
60868;DHT22;46702;48.370;10.794;2024-01-11T13:42:39;-3.00;99.90
60868;DHT22;46702;48.370;10.794;2024-01-11T13:45:05;-3.10;99.90
60868;DHT22;46702;48.370;10.794;2024-01-11T13:47:34;-3.20;99.90
60868;DHT22;46702;48.370;10.794;2024-01-11T13:50:00;-3.20;99.90
60868;DHT22;46702;48.370;10.794;2024-01-11T13:52:26;-3.20;99.90
60868;DHT22;46702;48.370;10.794;2024-01-11T13:54:52;-3.10;99.90
60868;DHT22;46702;48.370;10.794;2024-01-11T13:57:17;-3.00;99.90
60868;DHT22;46702;48.370;10.794;2024-01-11T13:59:43;-2.90;99.90
60868;DHT22;46702;48.370;10.794;2024-01-11T14:02:09;-2.80;99.90
60868;DHT22;46702;48.370;10.794;2024-01-11T14:04:34;-2.80;99.90
60868;DHT22;46702;48.370;10.794;2024-01-11T14:07:01;-2.70;99.90
60868;DHT22;46702;48.370;10.794;2024-01-11T14:09:27;-2.70;99.90
60868;DHT22;46702;48.370;10.794;2024-01-11T14:11:53;-2.70;99.90
60868;DHT22;46702;48.370;10.794;2024-01-11T14:14:18;-2.60;99.90
60868;DHT22;46702;48.370;10.794;2024-01-11T14:16:46;-2.60;99.90
60868;DHT22;46702;48.370;10.794;2024-01-11T14:19:12;-2.60;99.90
60868;DHT22;46702;48.370;10.794;2024-01-11T14:21:38;-2.60;99.90
60868;DHT22;46702;48.370;10.794;2024-01-11T14:24:04;-2.50;99.90
60868;DHT22;46702;48.370;10.794;2024-01-11T14:26:31;-2.50;99.90
60868;DHT22;46702;48.370;10.794;2024-01-11T14:28:58;-2.50;99.90
60868;DHT22;46702;48.370;10.794;2024-01-11T14:31:24;-2.50;99.90
60868;DHT22;46702;48.370;10.794;2024-01-11T14:33:50;-2.50;99.90
60868;DHT22;46702;48.370;10.794;2024-01-11T14:36:15;-2.40;99.90
60868;DHT22;46702;48.370;10.794;2024-01-11T14:38:42;-2.40;99.90
60868;DHT22;46702;48.370;10.794;2024-01-11T14:41:09;-2.40;99.90
60868;DHT22;46702;48.370;10.794;2024-01-11T14:43:37;-2.40;99.90
60868;DHT22;46702;48.370;10.794;2024-01-11T14:46:04;-2.40;99.90
60868;DHT22;46702;48.370;10.794;2024-01-11T14:48:30;-2.50;99.90
60868;DHT22;46702;48.370;10.794;2024-01-11T14:51:01;-2.40;99.90
60868;DHT22;46702;48.370;10.794;2024-01-11T14:53:27;-2.40;99.90
60868;DHT22;46702;48.370;10.794;2024-01-11T14:55:53;-2.40;99.90
60868;DHT22;46702;48.370;10.794;2024-01-11T14:58:19;-2.50;99.90
60868;DHT22;46702;48.370;10.794;2024-01-11T15:00:45;-2.50;99.90
60868;DHT22;46702;48.370;10.794;2024-01-11T15:03:10;-2.50;99.90
60868;DHT22;46702;48.370;10.794;2024-01-11T15:05:37;-2.50;99.90
60868;DHT22;46702;48.370;10.794;2024-01-11T15:08:03;-2.60;99.90
60868;DHT22;46702;48.370;10.794;2024-01-11T15:10:29;-2.60;99.90
60868;DHT22;46702;48.370;10.794;2024-01-11T15:12:55;-2.60;99.90